Time;durP1;ratioP1;P1;durP2;ratioP2;P2;SDS_P1;SDS_P2;PMS_P1;PMS_P2;Temp;Humidity;BMP_temperature;BMP_pressure;BME280_temperature;BME280_humidity;BME280_pressure;Samples;Min_cycle;Max_cycle;Signal;HPM_P1;HPM_P2
2022/06/04 00:02:07;;;;;;;7.10;6.20;;;;;;;16.70;52.79;100653.61;109165;1267;21973;-78
2022/06/04 00:04:36;;;;;;;7.30;6.60;;;;;;;16.68;53.07;100649.66;109198;1268;21981;-77
2022/06/04 00:07:10;;;;;;;7.20;6.10;;;;;;;16.67;53.04;100651.27;108956;1269;23047;-75
2022/06/04 00:15:28;;;;;;;8.70;6.40;;;;;;;16.63;53.11;100646.21;109218;1268;21990;-76
2022/06/04 00:15:32;;;;;;;9.00;6.10;;;;;;;16.55;53.36;100643.19;109206;1267;22715;-77
2022/06/04 00:18:02;;;;;;;6.90;5.60;;;;;;;16.54;53.48;100641.05;109004;1268;21975;-77
2022/06/04 00:20:32;;;;;;;7.70;6.70;;;;;;;16.54;53.72;100634.94;109385;1260;22051;-77
2022/06/04 00:23:05;;;;;;;6.70;6.10;;;;;;;16.56;53.89;100634.65;109663;1260;21978;-77
2022/06/04 00:25:41;;;;;;;7.00;5.90;;;;;;;16.57;53.89;100634.44;109941;1261;22023;-78
2022/06/04 00:28:12;;;;;;;9.30;5.90;;;;;;;16.57;53.98;100641.21;109645;1263;21967;-77
2022/06/04 00:30:41;;;;;;;6.60;5.90;;;;;;;16.53;53.99;100645.11;109762;1263;21978;-76
2022/06/04 00:33:11;;;;;;;7.90;6.80;;;;;;;16.52;54.01;100646.30;109375;1266;22715;-76
2022/06/04 00:35:40;;;;;;;6.90;6.20;;;;;;;16.49;54.02;100645.89;109291;1266;23851;-77
2022/06/04 00:38:15;;;;;;;8.40;7.50;;;;;;;16.45;54.14;100643.34;109627;1265;21974;-77
2022/06/04 00:41:02;;;;;;;7.40;6.60;;;;;;;16.42;54.26;100638.41;109474;1264;21995;-76
2022/06/04 00:43:32;;;;;;;7.70;6.90;;;;;;;16.40;54.38;100621.31;109770;1264;23580;-78
2022/06/04 00:46:39;;;;;;;9.80;7.50;;;;;;;16.38;54.34;100614.32;109597;1265;22035;-77
2022/06/04 00:49:13;;;;;;;8.00;7.30;;;;;;;16.34;54.48;100606.64;109241;1267;23114;-77
2022/06/04 00:51:48;;;;;;;11.10;5.70;;;;;;;16.33;54.54;100602.33;109799;1261;22225;-77
2022/06/04 00:54:21;;;;;;;6.50;5.90;;;;;;;16.33;54.65;100601.26;109672;1263;21968;-77
2022/06/04 00:57:23;;;;;;;10.10;6.40;;;;;;;16.34;54.81;100606.63;109669;1263;23609;-77
2022/06/04 01:00:09;;;;;;;7.50;6.70;;;;;;;16.35;54.93;100604.99;109677;1260;22044;-77
2022/06/04 01:03:28;;;;;;;7.50;6.80;;;;;;;16.37;54.96;100603.20;109708;1263;22033;-76
2022/06/04 01:06:14;;;;;;;11.70;6.80;;;;;;;16.36;54.85;100598.96;109899;1260;22085;-77
2022/06/04 01:09:15;;;;;;;7.90;7.10;;;;;;;16.33;54.77;100597.36;109946;1261;21972;-76
2022/06/04 01:12:10;;;;;;;10.60;7.40;;;;;;;16.31;54.84;100595.18;109695;1260;22963;-77
2022/06/04 01:15:07;;;;;;;7.30;6.60;;;;;;;16.29;54.84;100588.65;109979;1260;22038;-77
2022/06/04 01:17:48;;;;;;;7.50;6.70;;;;;;;16.26;54.91;100581.96;110003;1260;21991;-76
2022/06/04 01:20:29;;;;;;;7.60;6.90;;;;;;;16.23;54.89;100585.52;109989;1260;21957;-77
2022/06/04 01:23:54;;;;;;;11.00;7.10;;;;;;;16.21;54.94;100584.08;109903;1261;22040;-77
2022/06/04 01:26:44;;;;;;;7.80;6.70;;;;;;;16.17;55.01;100583.11;109690;1260;22007;-76
2022/06/04 01:29:18;;;;;;;8.20;7.40;;;;;;;16.15;55.08;100585.67;109910;1261;23179;-77
2022/06/04 01:32:05;;;;;;;11.70;7.10;;;;;;;16.15;55.10;100585.41;109624;1263;23155;-77
2022/06/04 01:35:22;;;;;;;8.90;6.50;;;;;;;16.17;55.20;100589.60;109788;1262;22023;-77
2022/06/04 01:38:24;;;;;;;8.20;6.80;;;;;;;16.19;55.21;100587.05;109597;1264;22216;-76
2022/06/04 01:41:07;;;;;;;9.20;7.50;;;;;;;16.20;55.27;100581.19;109230;1267;21985;-77
2022/06/04 01:43:42;;;;;;;9.20;7.10;;;;;;;16.21;55.34;100578.16;109288;1264;21972;-77
2022/06/04 01:46:20;;;;;;;7.80;6.80;;;;;;;16.20;55.22;100580.66;109291;1266;22003;-77
2022/06/04 01:49:02;;;;;;;7.30;6.60;;;;;;;16.19;55.39;100582.42;109552;1266;21974;-76
2022/06/04 01:51:37;;;;;;;7.60;6.90;;;;;;;16.17;55.40;100576.67;109169;1266;21996;-77
2022/06/04 01:54:18;;;;;;;8.30;7.40;;;;;;;16.15;55.47;100567.71;109214;1267;21981;-78
2022/06/04 01:56:53;;;;;;;8.40;7.60;;;;;;;16.12;55.59;100561.64;109362;1267;23777;-77
2022/06/04 01:59:25;;;;;;;9.30;7.90;;;;;;;16.12;55.66;100558.98;109586;1265;24300;-77
2022/06/04 02:02:00;;;;;;;7.90;7.10;;;;;;;16.14;55.62;100556.52;109408;1263;23703;-76
2022/06/04 02:04:39;;;;;;;10.20;7.80;;;;;;;16.16;55.65;100557.80;109449;1264;23060;-76
2022/06/04 02:07:32;;;;;;;9.50;7.40;;;;;;;16.18;55.67;100553.64;109245;1264;23058;-76
2022/06/04 02:10:27;;;;;;;10.70;8.30;;;;;;;16.20;55.56;100555.73;109438;1263;23606;-77
2022/06/04 02:13:04;;;;;;;8.60;7.10;;;;;;;16.19;55.70;100552.77;109479;1261;23592;-75
2022/06/04 02:16:20;;;;;;;10.10;9.00;;;;;;;16.19;55.71;100551.66;110065;1260;21933;-76
2022/06/04 02:18:54;;;;;;;8.00;7.30;;;;;;;16.17;55.83;100547.88;109855;1261;21969;-78
2022/06/04 02:21:27;;;;;;;8.20;7.40;;;;;;;16.18;55.97;100545.10;109841;1263;21968;-77
2022/06/04 02:23:57;;;;;;;8.50;7.50;;;;;;;16.20;55.98;100542.20;109857;1261;22466;-77
2022/06/04 02:26:28;;;;;;;10.10;7.80;;;;;;;16.19;55.76;100542.11;109788;1263;21976;-76
2022/06/04 02:28:58;;;;;;;9.60;7.20;;;;;;;16.18;55.84;100545.80;109540;1267;22427;-76
2022/06/04 02:31:49;;;;;;;8.40;7.40;;;;;;;16.20;55.94;100547.16;108931;1270;22783;-76
2022/06/04 02:34:55;;;;;;;10.20;8.10;;;;;;;16.20;55.93;100543.52;108867;1270;21986;-78
2022/06/04 02:38:14;;;;;;;9.10;7.20;;;;;;;16.20;56.09;100543.95;108686;1270;218168;-78
2022/06/04 02:40:53;;;;;;;9.20;7.60;;;;;;;16.18;56.16;100545.72;108947;1270;21991;-77
2022/06/04 02:43:47;;;;;;;8.90;7.90;;;;;;;16.18;56.22;100542.07;108710;1275;22462;-77
2022/06/04 02:46:47;;;;;;;10.00;8.20;;;;;;;16.16;56.17;100543.34;108762;1273;21979;-77
2022/06/04 02:49:30;;;;;;;11.70;8.10;;;;;;;16.13;56.25;100546.27;108529;1276;23078;-77
2022/06/04 02:51:59;;;;;;;9.90;8.20;;;;;;;16.12;56.27;100550.04;108251;1280;22012;-78
2022/06/04 02:54:36;;;;;;;8.50;7.20;;;;;;;16.11;56.29;100548.20;108357;1279;22135;-76
2022/06/04 02:57:10;;;;;;;9.20;7.80;;;;;;;16.10;56.24;100547.73;108546;1275;21982;-76
2022/06/04 02:59:42;;;;;;;8.10;7.20;;;;;;;16.10;56.35;100550.61;108622;1276;22978;-76
2022/06/04 03:02:15;;;;;;;9.10;8.20;;;;;;;16.12;56.42;100557.80;108879;1271;22114;-77
2022/06/04 03:04:52;;;;;;;9.90;7.70;;;;;;;16.15;56.39;100558.45;108546;1276;22758;-77
2022/06/04 03:07:24;;;;;;;8.40;6.90;;;;;;;16.17;56.33;100562.97;108728;1270;23081;-77
2022/06/04 03:10:10;;;;;;;9.30;8.30;;;;;;;16.18;56.32;100564.30;108991;1269;23059;-78
2022/06/04 03:12:39;;;;;;;10.30;8.80;;;;;;;16.17;56.49;100564.27;109200;1266;23136;-77
2022/06/04 03:15:11;;;;;;;10.90;9.50;;;;;;;16.16;56.45;100565.95;109045;1267;23169;-77
2022/06/04 03:17:44;;;;;;;9.30;8.20;;;;;;;16.15;56.42;100565.67;109054;1267;23621;-77
2022/06/04 03:20:21;;;;;;;10.40;9.40;;;;;;;16.14;56.44;100557.68;108765;1272;22998;-77
2022/06/04 03:22:54;;;;;;;10.20;9.10;;;;;;;16.11;56.48;100551.55;108842;1269;23719;-76
2022/06/04 03:25:23;;;;;;;11.20;8.40;;;;;;;16.07;56.46;100549.61;109068;1270;22186;-77
2022/06/04 03:27:57;;;;;;;15.80;8.50;;;;;;;16.05;56.54;100550.21;108921;1270;21985;-77
2022/06/04 03:30:34;;;;;;;9.20;7.10;;;;;;;16.05;56.72;100552.80;108679;1273;22015;-77
2022/06/04 03:33:07;;;;;;;12.20;8.70;;;;;;;16.08;56.93;100552.41;108940;1270;22056;-77
2022/06/04 03:35:43;;;;;;;10.10;7.70;;;;;;;16.13;56.83;100546.61;108890;1270;23071;-77
2022/06/04 03:38:20;;;;;;;9.00;7.20;;;;;;;16.11;56.71;100541.73;108531;1273;23925;-79
2022/06/04 03:40:58;;;;;;;10.20;8.30;;;;;;;16.07;56.74;100546.41;108432;1276;22036;-77
2022/06/04 03:43:53;;;;;;;10.20;7.20;;;;;;;16.04;56.85;100552.06;108444;1276;23046;-77
2022/06/04 03:46:30;;;;;;;8.50;7.60;;;;;;;16.02;56.75;100557.70;108401;1278;23621;-76
2022/06/04 03:49:02;;;;;;;11.30;8.00;;;;;;;16.00;56.89;100556.30;108621;1273;23930;-76
2022/06/04 03:51:55;;;;;;;9.60;7.90;;;;;;;15.98;56.92;100549.94;108702;1274;21989;-76
2022/06/04 03:57:41;;;;;;;13.50;8.20;;;;;;;15.99;57.23;100553.55;109128;1267;23708;-77
2022/06/04 04:00:31;;;;;;;10.30;8.50;;;;;;;16.07;57.44;100560.56;109668;1260;21984;-76
2022/06/04 04:03:15;;;;;;;9.90;8.10;;;;;;;16.20;57.56;100563.60;109989;1260;23779;-77
2022/06/04 04:05:57;;;;;;;11.60;8.00;;;;;;;16.34;57.55;100562.73;109621;1260;21983;-77
2022/06/04 04:08:51;;;;;;;7.80;7.10;;;;;;;16.46;57.43;100564.67;109954;1259;22013;-77
2022/06/04 04:11:50;;;;;;;7.90;7.10;;;;;;;16.57;57.29;100564.41;109567;1263;23066;-77
2022/06/04 04:14:32;;;;;;;8.70;7.80;;;;;;;16.69;57.03;100565.74;109355;1263;23067;-76
2022/06/04 04:17:23;;;;;;;9.50;8.50;;;;;;;16.81;56.59;100569.90;109752;1263;22121;-76
2022/06/04 04:20:28;;;;;;;8.40;7.50;;;;;;;16.93;56.32;100574.06;109606;1264;21982;-76
2022/06/04 04:23:19;;;;;;;;;;;;;;;;;;;;;
2022/06/04 04:26:12;;;;;;;8.30;7.10;;;;;;;17.14;55.99;100572.56;109561;1263;21990;-77
2022/06/04 04:28:58;;;;;;;7.60;6.90;;;;;;;17.24;55.50;100572.21;109419;1261;21988;-76
2022/06/04 04:31:50;;;;;;;7.20;6.50;;;;;;;17.33;55.38;100565.73;109734;1260;23612;-77
2022/06/04 04:34:24;;;;;;;9.70;7.30;;;;;;;17.44;55.07;100563.50;109929;1260;23618;-75
2022/06/04 04:37:08;;;;;;;8.60;7.10;;;;;;;17.49;54.74;100566.48;109766;1260;23012;-78
2022/06/04 04:40:11;;;;;;;12.30;7.70;;;;;;;17.51;54.47;100572.33;109844;1260;23600;-78
2022/06/04 04:43:18;;;;;;;7.60;6.80;;;;;;;17.49;54.25;100574.54;109865;1260;23757;-77
2022/06/04 04:46:21;;;;;;;8.70;7.20;;;;;;;17.45;54.08;100576.14;109808;1260;22034;-77
2022/06/04 04:49:25;;;;;;;8.80;7.80;;;;;;;17.39;54.27;100579.77;109937;1260;24290;-78
2022/06/04 04:52:21;;;;;;;;;;;;;;;17.37;54.47;100585.52;109791;1260;22320;-79
2022/06/04 04:54:54;;;;;;;7.40;6.70;;;;;;;17.34;54.73;100586.19;110165;1260;22011;-77
2022/06/04 04:57:27;;;;;;;9.70;7.70;;;;;;;17.36;54.76;100583.68;110090;1260;22079;-78
2022/06/04 05:00:01;;;;;;;8.80;7.80;;;;;;;17.37;54.46;100584.46;109788;1258;21975;-80
2022/06/04 05:02:46;;;;;;;9.70;8.70;;;;;;;17.35;54.50;100583.18;110237;1259;21969;-83
2022/06/04 05:05:19;;;;;;;9.40;8.50;;;;;;;17.34;54.59;100587.27;109716;1260;21999;-79
2022/06/04 05:07:50;;;;;;;8.20;7.40;;;;;;;17.33;54.78;100589.60;109279;1263;21981;-78
2022/06/04 05:10:43;;;;;;;9.10;8.00;;;;;;;17.35;54.86;100594.64;109631;1263;23589;-78
2022/06/04 05:13:49;;;;;;;;;;;;;;;;;;;;;
2022/06/04 05:16:45;;;;;;;8.80;7.90;;;;;;;17.37;55.11;100601.27;109143;1270;23492;-79
2022/06/04 05:19:40;;;;;;;7.60;6.90;;;;;;;17.31;55.29;100602.92;108688;1273;21985;-78
2022/06/04 05:22:29;;;;;;;9.50;8.60;;;;;;;17.29;55.61;100603.48;108481;1274;21991;-78
2022/06/04 05:25:39;;;;;;;12.00;10.40;;;;;;;17.30;55.86;100599.85;108626;1273;22058;-78
2022/06/04 05:28:24;;;;;;;8.20;7.30;;;;;;;17.30;55.92;100600.77;108640;1276;23616;-78
2022/06/04 05:31:33;;;;;;;;;;;;;;;;;;;;;
2022/06/04 05:34:21;;;;;;;8.10;7.30;;;;;;;17.27;56.15;100614.08;109218;1265;21991;-77
2022/06/04 05:36:54;;;;;;;;;;;;;;;17.28;56.14;100618.48;108991;1268;23757;-79
2022/06/04 05:39:24;;;;;;;9.00;8.20;;;;;;;17.21;56.53;100623.48;109067;1267;22046;-78
2022/06/04 05:41:56;;;;;;;11.00;9.70;;;;;;;17.22;56.60;100621.05;109267;1262;21982;-80
2022/06/04 05:44:27;;;;;;;12.50;8.80;;;;;;;17.28;56.64;100628.95;109280;1264;22767;-79
2022/06/04 05:46:59;;;;;;;11.00;8.90;;;;;;;17.33;56.74;100629.02;109209;1267;22205;-77
2022/06/04 05:49:28;;;;;;;;;;;;;;;17.33;56.53;100628.50;109190;1267;22856;-78
2022/06/04 05:52:01;;;;;;;9.20;8.00;;;;;;;17.22;56.73;100629.93;109227;1267;24364;-78
2022/06/04 05:54:40;;;;;;;11.10;10.10;;;;;;;17.19;56.89;100636.38;109726;1260;23008;-77
2022/06/04 05:57:24;;;;;;;11.00;9.40;;;;;;;17.20;57.06;100645.83;109367;1260;22176;-78
2022/06/04 06:00:07;;;;;;;12.90;9.40;;;;;;;17.20;57.22;100647.46;109994;1260;21967;-77
2022/06/04 06:02:40;;;;;;;11.80;9.70;;;;;;;17.24;57.36;100645.04;110007;1259;21976;-78
2022/06/04 06:05:12;;;;;;;11.10;9.20;;;;;;;17.29;57.36;100647.89;109726;1259;23036;-80
2022/06/04 06:07:40;;;;;;;10.00;8.50;;;;;;;17.34;57.28;100649.77;109721;1261;22272;-77
2022/06/04 06:10:12;;;;;;;13.80;11.30;;;;;;;17.35;57.26;100653.75;109977;1260;22735;-78
2022/06/04 06:12:41;;;;;;;11.70;10.40;;;;;;;17.32;57.32;100657.41;109290;1264;22549;-78
2022/06/04 06:15:10;;;;;;;12.50;10.00;;;;;;;17.28;57.48;100660.65;109224;1265;23770;-79
2022/06/04 06:17:40;;;;;;;16.10;11.30;;;;;;;17.25;57.98;100665.63;109017;1264;21986;-78
2022/06/04 06:20:10;;;;;;;13.10;11.80;;;;;;;17.22;58.09;100672.02;109147;1264;22059;-79
2022/06/04 06:23:21;;;;;;;12.50;11.20;;;;;;;17.18;58.37;100673.67;109165;1264;21980;-77
2022/06/04 06:26:23;;;;;;;20.80;17.90;;;;;;;17.10;58.83;100672.14;108609;1274;22493;-79
2022/06/04 06:28:54;;;;;;;13.50;10.90;;;;;;;17.04;59.15;100673.23;108466;1276;22609;-79
2022/06/04 06:31:26;;;;;;;11.60;10.50;;;;;;;16.98;59.53;100673.55;108187;1276;22001;-79
2022/06/04 06:33:56;;;;;;;14.70;10.40;;;;;;;16.90;60.04;100678.61;108466;1279;22759;-77
2022/06/04 06:36:25;;;;;;;13.30;10.50;;;;;;;16.85;60.52;100679.31;108422;1277;23060;-78
2022/06/04 06:38:56;;;;;;;11.20;10.10;;;;;;;16.83;61.05;100676.10;108288;1277;22689;-77
2022/06/04 06:41:26;;;;;;;12.90;11.60;;;;;;;16.84;61.48;100678.94;108114;1279;23077;-78
2022/06/04 06:43:56;;;;;;;12.50;11.40;;;;;;;16.89;61.97;100678.25;107993;1285;22029;-77
2022/06/04 06:46:39;;;;;;;14.20;12.90;;;;;;;16.93;62.19;100678.13;107790;1285;22098;-78
2022/06/04 06:49:26;;;;;;;14.90;13.40;;;;;;;16.93;62.56;100676.04;107968;1280;22039;-79
2022/06/04 06:52:01;;;;;;;14.00;12.70;;;;;;;16.95;62.96;100673.21;108125;1280;22107;-79
2022/06/04 06:54:37;;;;;;;16.00;13.00;;;;;;;16.93;63.30;100672.73;108338;1281;22029;-79
2022/06/04 06:57:15;;;;;;;13.10;11.80;;;;;;;16.94;63.74;100670.87;108314;1279;21991;-78
2022/06/04 06:59:47;;;;;;;17.00;12.60;;;;;;;16.93;63.93;100668.04;108309;1280;22002;-79
2022/06/04 07:02:18;;;;;;;14.90;13.20;;;;;;;16.93;64.20;100667.21;108943;1267;23831;-77
2022/06/04 07:04:47;;;;;;;;;;;;;;;16.92;64.37;100671.77;109279;1261;21966;-80
2022/06/04 07:07:17;;;;;;;13.60;12.30;;;;;;;16.81;64.61;100676.54;110018;1259;22013;-78
2022/06/04 07:09:46;;;;;;;14.60;13.20;;;;;;;16.76;64.90;100674.66;109684;1260;22084;-78
2022/06/04 07:12:22;;;;;;;15.40;13.90;;;;;;;16.73;65.01;100672.47;110119;1260;21969;-80
2022/06/04 07:14:52;;;;;;;15.80;13.90;;;;;;;16.75;65.49;100668.88;109593;1264;21987;-78
2022/06/04 07:17:21;;;;;;;18.30;13.00;;;;;;;16.83;65.90;100667.51;109271;1267;23055;-78
2022/06/04 07:19:50;;;;;;;16.40;13.80;;;;;;;16.90;66.05;100665.27;109577;1264;22030;-80
2022/06/04 07:22:19;;;;;;;15.50;13.90;;;;;;;16.96;65.91;100664.35;109338;1266;22207;-79
2022/06/04 07:24:49;;;;;;;15.40;14.00;;;;;;;16.98;65.86;100658.77;109409;1265;22031;-77
2022/06/04 07:27:22;;;;;;;14.10;12.80;;;;;;;17.01;65.89;100657.41;109629;1263;22412;-79
2022/06/04 07:30:03;;;;;;;16.80;15.10;;;;;;;17.01;65.62;100658.15;109948;1263;21973;-78
2022/06/04 07:32:47;;;;;;;15.90;14.30;;;;;;;17.02;65.75;100656.35;109597;1264;21997;-79
2022/06/04 07:35:18;;;;;;;14.30;13.00;;;;;;;17.07;65.95;100655.17;109931;1264;22030;-78
2022/06/04 07:37:48;;;;;;;14.10;12.70;;;;;;;17.11;65.78;100655.06;109307;1268;22651;-79
2022/06/04 07:40:17;;;;;;;16.70;12.50;;;;;;;17.13;65.52;100655.77;109022;1270;22140;-78
2022/06/04 07:42:55;;;;;;;13.90;12.60;;;;;;;17.15;65.60;100658.30;109152;1270;21950;-78
2022/06/04 07:45:25;;;;;;;14.30;12.90;;;;;;;17.18;65.76;100665.50;109184;1268;23060;-78
2022/06/04 07:47:54;;;;;;;15.70;13.40;;;;;;;17.28;65.94;100669.33;109130;1270;22516;-78
2022/06/04 07:50:23;;;;;;;15.00;13.60;;;;;;;17.37;65.70;100670.33;109100;1270;23481;-78
2022/06/04 07:52:52;;;;;;;14.20;12.80;;;;;;;17.38;65.30;100668.73;109169;1269;21980;-79
2022/06/04 07:55:21;;;;;;;14.20;12.90;;;;;;;17.39;65.32;100672.45;109351;1264;21990;-78
2022/06/04 07:57:50;;;;;;;14.10;12.60;;;;;;;17.44;65.47;100674.14;109935;1260;23600;-78
2022/06/04 08:00:21;;;;;;;14.50;13.20;;;;;;;17.48;65.31;100672.06;110054;1259;22950;-78
2022/06/04 08:02:52;;;;;;;14.10;12.90;;;;;;;17.50;65.17;100667.95;110123;1260;21989;-78
2022/06/04 08:05:27;;;;;;;15.20;13.90;;;;;;;17.48;65.14;100667.21;110162;1260;21971;-78
2022/06/04 08:07:56;;;;;;;15.30;14.20;;;;;;;17.50;65.17;100667.37;109731;1260;21989;-77
2022/06/04 08:10:25;;;;;;;14.90;13.60;;;;;;;17.55;65.32;100672.04;110033;1260;23076;-79
2022/06/04 08:12:58;;;;;;;15.90;14.20;;;;;;;17.60;65.14;100676.85;110322;1258;21989;-78
2022/06/04 08:15:27;;;;;;;19.10;17.30;;;;;;;17.63;65.02;100679.64;109931;1260;22761;-78
2022/06/04 08:18:00;;;;;;;14.50;13.30;;;;;;;17.66;65.04;100679.89;109729;1264;21984;-78
2022/06/04 08:20:29;;;;;;;15.30;13.70;;;;;;;17.73;65.12;100680.22;109614;1264;22028;-78
2022/06/04 08:23:03;;;;;;;17.60;15.90;;;;;;;17.83;65.33;100678.27;109558;1263;22881;-79
2022/06/04 08:25:36;;;;;;;13.70;12.40;;;;;;;17.97;65.20;100682.98;109412;1263;23608;-78
2022/06/04 08:28:06;;;;;;;13.50;12.30;;;;;;;18.08;65.11;100676.42;109615;1262;21966;-77
2022/06/04 08:30:36;;;;;;;13.50;12.30;;;;;;;18.18;64.71;100675.21;109597;1263;22546;-78
2022/06/04 08:33:05;;;;;;;13.80;12.70;;;;;;;18.24;64.18;100675.89;109496;1264;23803;-78
2022/06/04 08:35:35;;;;;;;15.50;14.10;;;;;;;18.33;64.38;100682.24;109483;1264;21972;-78
2022/06/04 08:38:07;;;;;;;18.10;16.60;;;;;;;18.46;64.32;100686.40;109441;1263;21984;-78
2022/06/04 08:40:54;;;;;;;14.90;13.60;;;;;;;18.60;63.86;100690.95;109729;1264;21973;-78
2022/06/04 08:43:37;;;;;;;13.30;12.20;;;;;;;18.73;63.51;100689.80;109302;1263;22741;-80
2022/06/04 08:46:21;;;;;;;12.60;11.40;;;;;;;18.86;63.10;100688.23;109578;1265;23694;-77
2022/06/04 08:48:51;;;;;;;13.30;12.20;;;;;;;18.98;62.76;100689.94;109524;1266;21993;-77
2022/06/04 08:51:25;;;;;;;13.60;12.20;;;;;;;19.06;62.15;100690.17;109529;1265;21993;-79
2022/06/04 08:53:57;;;;;;;16.40;14.90;;;;;;;19.15;61.76;100686.98;109575;1265;21966;-78
2022/06/04 08:59:50;;;;;;;12.90;11.80;;;;;;;19.32;61.15;100679.04;109364;1267;23092;-74
2022/06/04 09:02:29;;;;;;;12.40;11.20;;;;;;;19.46;61.27;100675.10;109129;1270;22353;-75
2022/06/04 09:05:20;;;;;;;14.40;10.60;;;;;;;19.60;60.89;100670.17;109020;1270;21993;-76
2022/06/04 09:07:56;;;;;;;12.50;11.30;;;;;;;19.70;60.65;100667.91;109192;1264;22195;-76
2022/06/04 09:10:44;;;;;;;11.60;10.60;;;;;;;19.85;60.87;100668.06;108925;1271;22043;-77
2022/06/04 09:13:13;;;;;;;13.90;12.80;;;;;;;20.01;60.59;100668.38;108884;1270;22175;-77
2022/06/04 09:15:53;;;;;;;12.90;11.70;;;;;;;20.16;60.34;100671.30;109117;1270;21990;-76
2022/06/04 09:18:34;;;;;;;11.60;10.50;;;;;;;20.31;59.73;100669.33;108985;1271;22442;-77
2022/06/04 09:21:18;;;;;;;17.00;14.30;;;;;;;20.38;58.79;100670.80;108862;1271;22019;-77
2022/06/04 09:23:49;;;;;;;13.40;12.10;;;;;;;20.49;59.05;100674.58;108827;1270;22711;-76
2022/06/04 09:26:40;;;;;;;14.30;13.00;;;;;;;20.65;59.21;100672.15;108777;1271;21989;-78
2022/06/04 09:29:31;;;;;;;;;;;;;;;20.82;58.81;100672.21;108792;1270;22767;-77
2022/06/04 09:32:09;;;;;;;14.60;13.10;;;;;;;20.89;58.27;100673.70;109002;1270;22063;-78
2022/06/04 09:34:50;;;;;;;15.70;14.10;;;;;;;20.97;57.83;100679.27;108976;1270;23069;-78
2022/06/04 09:37:24;;;;;;;18.20;14.60;;;;;;;21.06;57.63;100678.45;108822;1270;21983;-77
2022/06/04 09:40:07;;;;;;;14.90;12.90;;;;;;;21.12;57.40;100684.02;108713;1272;23782;-78
2022/06/04 09:42:36;;;;;;;13.90;12.40;;;;;;;21.15;57.18;100688.45;108916;1272;22038;-77
2022/06/04 09:45:56;;;;;;;14.90;13.50;;;;;;;21.03;56.79;100689.55;108983;1271;22959;-76
2022/06/04 09:48:35;;;;;;;16.40;14.80;;;;;;;21.04;57.13;100699.17;108955;1271;22472;-78
2022/06/04 09:51:16;;;;;;;15.80;14.20;;;;;;;21.08;57.27;100703.05;108942;1273;21994;-78
2022/06/04 09:53:50;;;;;;;16.90;15.20;;;;;;;21.11;57.12;100702.48;109187;1267;24338;-77
2022/06/04 09:56:42;;;;;;;16.60;14.40;;;;;;;21.13;57.01;100703.38;109468;1266;21991;-78
2022/06/04 09:59:24;;;;;;;14.20;12.80;;;;;;;21.13;56.95;100698.67;109275;1267;22024;-79
2022/06/04 10:02:09;;;;;;;13.40;12.00;;;;;;;21.16;57.16;100705.20;109179;1266;22062;-78
2022/06/04 10:04:47;;;;;;;14.70;12.80;;;;;;;21.22;57.29;100706.15;109536;1260;23163;-77
2022/06/04 10:07:38;;;;;;;14.80;13.50;;;;;;;21.29;57.34;100710.65;110041;1260;21977;-77
2022/06/04 10:10:35;;;;;;;18.10;13.00;;;;;;;21.37;57.37;100714.50;110145;1257;23074;-77
2022/06/04 10:13:43;;;;;;;17.70;14.10;;;;;;;21.46;57.33;100714.46;110147;1260;22678;-77
2022/06/04 10:16:25;;;;;;;14.30;12.40;;;;;;;21.53;57.36;100715.14;109808;1260;22983;-77
2022/06/04 10:19:01;;;;;;;16.50;13.50;;;;;;;21.62;57.45;100713.47;109877;1260;21956;-77
2022/06/04 10:21:36;;;;;;;16.80;13.70;;;;;;;21.71;57.16;100711.34;110001;1260;21985;-77
2022/06/04 10:24:35;;;;;;;15.70;14.00;;;;;;;21.80;56.42;100709.98;109374;1260;21970;-77
2022/06/04 10:27:37;;;;;;;16.90;13.40;;;;;;;21.86;56.26;100710.27;110060;1260;21992;-77
2022/06/04 10:30:28;;;;;;;15.50;12.30;;;;;;;21.97;56.00;100706.20;110107;1260;22959;-77
2022/06/04 10:33:03;;;;;;;12.80;11.50;;;;;;;22.07;55.65;100707.83;109413;1263;21992;-77
2022/06/04 10:36:04;;;;;;;13.50;11.50;;;;;;;22.17;55.46;100708.80;109657;1264;21985;-76
2022/06/04 10:38:42;;;;;;;11.90;10.10;;;;;;;22.27;54.96;100716.39;109378;1264;22214;-77
2022/06/04 10:42:06;;;;;;;12.90;11.80;;;;;;;22.34;54.29;100721.48;109575;1263;23069;-77
2022/06/04 10:45:06;;;;;;;16.30;14.80;;;;;;;22.38;54.13;100723.31;108832;1270;21977;-78
2022/06/04 10:47:46;;;;;;;13.00;11.80;;;;;;;22.47;54.34;100724.67;108647;1270;23152;-78
2022/06/04 10:50:23;;;;;;;15.40;12.90;;;;;;;22.55;53.90;100726.02;108893;1267;22019;-77
2022/06/04 10:56:12;;;;;;;14.30;12.00;;;;;;;22.64;53.79;100724.00;112210;1251;21979;-76
2022/06/04 10:58:53;;;;;;;11.70;9.80;;;;;;;22.75;53.41;100729.93;111382;1254;21966;-77
2022/06/04 11:02:03;;;;;;;;;;;;;;;22.82;53.38;100723.42;111367;1250;21943;-79
2022/06/04 11:04:46;;;;;;;11.60;10.50;;;;;;;22.86;53.40;100723.95;110232;1257;21982;-77
2022/06/04 11:07:36;;;;;;;9.90;8.90;;;;;;;22.94;53.03;100718.05;110517;1257;22935;-76
2022/06/04 11:10:22;;;;;;;9.90;7.90;;;;;;;23.00;52.43;100714.93;110312;1259;21966;-78
2022/06/04 11:13:23;;;;;;;7.50;6.80;;;;;;;23.03;51.67;100713.30;110318;1257;22038;-78
2022/06/04 11:16:11;;;;;;;;;;;;;;;23.06;51.23;100713.19;110356;1259;21963;-78
2022/06/04 11:18:50;;;;;;;9.80;8.60;;;;;;;23.02;50.98;100717.02;110268;1259;21949;-77
2022/06/04 11:21:40;;;;;;;10.40;8.90;;;;;;;23.01;50.70;100715.00;110427;1259;24134;-77
2022/06/04 11:24:16;;;;;;;12.10;9.20;;;;;;;22.99;50.59;100711.66;110839;1256;23703;-77
2022/06/04 11:26:53;;;;;;;11.30;10.10;;;;;;;23.02;50.72;100713.45;110481;1258;22052;-78
2022/06/04 11:29:22;;;;;;;12.30;9.80;;;;;;;23.04;50.55;100713.27;110527;1257;23434;-76
2022/06/04 11:31:57;;;;;;;12.20;9.30;;;;;;;23.03;50.50;100711.42;109649;1264;22433;-77
2022/06/04 11:35:03;;;;;;;9.10;8.30;;;;;;;23.09;50.79;100715.95;109693;1264;23776;-78
2022/06/04 11:38:33;;;;;;;8.20;4.50;;;;;;;23.17;50.16;100712.44;108974;1268;22839;-77
2022/06/04 11:41:32;;;;;;;6.70;5.40;;;;;;;23.17;48.69;100708.77;109053;1268;22708;-78
2022/06/04 11:44:34;;;;;;;5.20;4.20;;;;;;;23.12;47.59;100708.66;109119;1268;21988;-76
2022/06/04 11:47:48;;;;;;;3.70;3.20;;;;;;;23.05;46.08;100711.56;109083;1269;21972;-79
2022/06/04 11:50:53;;;;;;;4.60;3.70;;;;;;;22.92;45.60;100709.29;109466;1263;23053;-78
2022/06/04 11:53:31;;;;;;;6.10;5.30;;;;;;;22.88;45.97;100714.83;109391;1263;21986;-77
2022/06/04 11:56:10;;;;;;;4.10;3.40;;;;;;;22.97;46.55;100714.38;110055;1258;22047;-77
2022/06/04 11:59:07;;;;;;;4.50;2.90;;;;;;;23.04;45.88;100717.95;109582;1264;21980;-76
2022/06/04 12:02:05;;;;;;;6.50;3.50;;;;;;;22.99;45.16;100721.33;109364;1264;21981;-77
2022/06/04 12:04:45;;;;;;;4.30;3.20;;;;;;;23.00;45.15;100720.04;109166;1268;22802;-77
2022/06/04 12:07:24;;;;;;;8.70;4.00;;;;;;;23.03;45.22;100713.10;109301;1267;21997;-77
2022/06/04 12:10:05;;;;;;;6.30;3.80;;;;;;;23.10;45.24;100712.52;109219;1267;23811;-79
2022/06/04 12:13:06;;;;;;;5.70;3.10;;;;;;;23.15;45.06;100707.43;109161;1268;23683;-77
2022/06/04 12:16:28;;;;;;;4.30;3.90;;;;;;;23.20;45.23;100706.71;109189;1267;21971;-79
2022/06/04 12:19:01;;;;;;;3.30;2.90;;;;;;;23.25;44.96;100704.80;108980;1268;21971;-78
2022/06/04 12:24:40;;;;;;;4.90;3.00;;;;;;;23.47;44.40;100700.16;109225;1265;22479;-78
2022/06/04 12:27:25;;;;;;;3.90;2.60;;;;;;;23.67;44.02;100694.95;109266;1267;22437;-78
2022/06/04 12:29:58;;;;;;;6.30;2.80;;;;;;;23.79;43.27;100696.65;109244;1267;21973;-78
2022/06/04 12:32:35;;;;;;;4.00;2.80;;;;;;;23.82;42.39;100697.66;109260;1265;22812;-77
2022/06/04 12:35:15;;;;;;;6.40;3.90;;;;;;;23.83;41.99;100698.34;109535;1265;23717;-78
2022/06/04 12:37:58;;;;;;;4.00;2.90;;;;;;;23.88;41.99;100692.90;109418;1265;22199;-79